Site contains unofficial IBTrACS data. Visit the IBTrACS Website to access archived data.

1897 NOT_NAMED (1897046S12064)


IBTrACS version v04r00. Visit IBTrACS website for data access.
Please direct all questions to the IBTrACS Q and A forum

Storm track - Intensity - Wind Radii - Intensity Data - Source Data - All data

Summary Information

Storm ID 1897046S12064
Start Feb 14 18Z
End Feb 25 06Z
ATCF IDs
Track status Best track data.

Storm track plot

Map of storm track

Intensity plots

No Intensity information for this storm


Radial wind information

No radial wind information for this storm


Position and Intensity Table

BASIN ISO_TIME_________ NATURE LAT LON
degrees north degrees east
SI 1897-02-14 18:00:00 NR -12.20 64.00
SI 21:00:00 NR -12.23 63.35
SI 1897-02-15 00:00:00 NR -12.25 62.71
SI 03:00:00 NR -12.28 62.09
SI 06:00:00 NR -12.30 61.50
SI 09:00:00 NR -12.32 60.94
SI 12:00:00 NR -12.34 60.42
SI 15:00:00 NR -12.37 59.94
SI 18:00:00 NR -12.40 59.50
SI 21:00:00 NR -12.44 59.08
SI 1897-02-16 00:00:00 NR -12.49 58.69
SI 03:00:00 NR -12.55 58.33
SI 06:00:00 NR -12.60 58.00
SI 09:00:00 NR -12.65 57.67
SI 12:00:00 NR -12.69 57.37
SI 15:00:00 NR -12.74 57.08
SI 18:00:00 NR -12.80 56.80
SI 21:00:00 NR -12.87 56.51
SI 1897-02-17 00:00:00 NR -12.95 56.23
SI 03:00:00 NR -13.03 55.96
SI 06:00:00 NR -13.10 55.70
SI 09:00:00 NR -13.16 55.46
SI 12:00:00 NR -13.21 55.23
SI 15:00:00 NR -13.25 55.02
SI 18:00:00 NR -13.30 54.80
SI 21:00:00 NR -13.34 54.57
SI 1897-02-18 00:00:00 NR -13.38 54.35
SI 03:00:00 NR -13.44 54.12
SI 06:00:00 NR -13.50 53.90
SI 09:00:00 NR -13.58 53.67
SI 12:00:00 NR -13.67 53.44
SI 15:00:00 NR -13.78 53.22
SI 18:00:00 NR -13.90 53.00
SI 21:00:00 NR -14.02 52.78
SI 1897-02-19 00:00:00 NR -14.15 52.58
SI 03:00:00 NR -14.31 52.38
SI 06:00:00 NR -14.50 52.20
SI 09:00:00 NR -14.73 52.02
SI 12:00:00 NR -14.99 51.86
SI 15:00:00 NR -15.28 51.72
SI 18:00:00 NR -15.60 51.60
SI 21:00:00 NR -15.94 51.50
SI 1897-02-20 00:00:00 NR -16.29 51.42
SI 03:00:00 NR -16.65 51.36
SI 06:00:00 NR -17.00 51.30
SI 09:00:00 NR -17.32 51.23
SI 12:00:00 NR -17.62 51.17
SI 15:00:00 NR -17.92 51.12
SI 18:00:00 NR -18.20 51.10
SI 21:00:00 NR -18.42 51.08
SI 1897-02-21 00:00:00 NR -18.64 51.08
SI 03:00:00 NR -18.91 51.11
SI 06:00:00 NR -19.30 51.20
SI 09:00:00 NR -19.90 51.33
SI 12:00:00 NR -20.60 51.52
SI 15:00:00 NR -21.33 51.74
SI 18:00:00 NR -22.00 52.00
SI 21:00:00 NR -22.50 52.26
SI 1897-02-22 00:00:00 NR -22.94 52.55
SI 03:00:00 NR -23.33 52.86
SI 06:00:00 NR -23.70 53.20
SI 09:00:00 NR -24.09 53.55
SI 12:00:00 NR -24.46 53.93
SI 15:00:00 NR -24.83 54.31
SI 18:00:00 NR -25.20 54.70
SI 21:00:00 NR -25.57 55.07
SI 1897-02-23 00:00:00 NR -25.94 55.44
SI 03:00:00 NR -26.32 55.82
SI 06:00:00 NR -26.70 56.20
SI 09:00:00 NR -27.09 56.59
SI 12:00:00 NR -27.48 56.98
SI 15:00:00 NR -27.89 57.38
SI 18:00:00 NR -28.30 57.80
SI 21:00:00 NR -28.69 58.22
SI 1897-02-24 00:00:00 NR -29.10 58.66
SI 03:00:00 NR -29.53 59.12
SI 06:00:00 NR -30.00 59.60
SI 09:00:00 NR -30.50 60.13
SI 12:00:00 NR -31.04 60.68
SI 15:00:00 NR -31.64 61.24
SI 18:00:00 NR -32.30 61.80
SI 21:00:00 NR -33.03 62.34
SI 1897-02-25 00:00:00 NR -33.83 62.86
SI 03:00:00 NR -34.65 63.38
SI 06:00:00 NR -35.50 63.90

Source Information

Agency Information
USA
TOKYO
CMA
HKO
NEWDELHI
REUNION
BOM
NADI
WELLINGTON
DS824
TD9636 cons_worldwide_trop_cyclone_18710101-19891231-005:Line=2378
TD9635
NEUMANN
MLC

All available IBTrACS Data

SEASON BASIN SUBBASIN ISO_TIME_________ NATURE LAT LON DIST2LAND LANDFALL IFLAG USA SSHS TD9636 LAT TD9636 LON TD9636 STAGE STORM SPEED STORM DIR
Year degrees north degrees east km km 1 degrees north degrees east kts degrees
1897 SI MM 1897-02-14 18:00:00 NR -12.20 64.00 1110 1073 __________O___ -1 -12.20 64.00 7 13 267
1897 SI MM 21:00:00 NR -12.23 63.35 1073 1023 __________P___ -1 -12.23 63.35 7 13 268
1897 SI MM 1897-02-15 00:00:00 NR -12.25 62.71 1023 991 __________P___ -1 -12.25 62.71 7 12 268
1897 SI MM 03:00:00 NR -12.28 62.09 991 962 __________P___ -1 -12.28 62.09 7 12 268
1897 SI MM 06:00:00 NR -12.30 61.50 962 941 __________O___ -1 -12.30 61.50 7 11 268
1897 SI MM 09:00:00 NR -12.32 60.94 937 922 __________P___ -1 -12.32 60.94 7 11 268
1897 SI MM 12:00:00 NR -12.34 60.42 919 896 __________P___ -1 -12.34 60.42 7 10 267
1897 SI MM 15:00:00 NR -12.37 59.94 893 882 __________P___ -1 -12.37 59.94 7 9 266
1897 SI MM 18:00:00 NR -12.40 59.50 882 874 __________O___ -1 -12.40 59.50 7 9 265
1897 SI MM 21:00:00 NR -12.44 59.08 874 857 __________P___ -1 -12.44 59.08 7 8 263
1897 SI MM 1897-02-16 00:00:00 NR -12.49 58.69 857 853 __________P___ -1 -12.49 58.69 7 7 262
1897 SI MM 03:00:00 NR -12.55 58.33 852 839 __________P___ -1 -12.55 58.33 7 7 261
1897 SI MM 06:00:00 NR -12.60 58.00 839 830 __________O___ -1 -12.60 58.00 7 7 261
1897 SI MM 09:00:00 NR -12.65 57.67 830 795 __________P___ -1 -12.65 57.67 7 6 261
1897 SI MM 12:00:00 NR -12.69 57.37 795 765 __________P___ -1 -12.69 57.37 7 6 260
1897 SI MM 15:00:00 NR -12.74 57.08 765 731 __________P___ -1 -12.74 57.08 7 6 259
1897 SI MM 18:00:00 NR -12.80 56.80 731 696 __________O___ -1 -12.80 56.80 7 6 257
1897 SI MM 21:00:00 NR -12.87 56.51 696 666 __________P___ -1 -12.87 56.51 7 6 255
1897 SI MM 1897-02-17 00:00:00 NR -12.95 56.23 666 642 __________P___ -1 -12.95 56.23 7 6 254
1897 SI MM 03:00:00 NR -13.03 55.96 642 608 __________P___ -1 -13.03 55.96 7 5 254
1897 SI MM 06:00:00 NR -13.10 55.70 608 583 __________O___ -1 -13.10 55.70 7 5 255
1897 SI MM 09:00:00 NR -13.16 55.46 583 554 __________P___ -1 -13.16 55.46 7 5 257
1897 SI MM 12:00:00 NR -13.21 55.23 554 529 __________P___ -1 -13.21 55.23 7 4 257
1897 SI MM 15:00:00 NR -13.25 55.02 529 510 __________P___ -1 -13.25 55.02 7 4 258
1897 SI MM 18:00:00 NR -13.30 54.80 510 489 __________O___ -1 -13.30 54.80 7 4 258
1897 SI MM 21:00:00 NR -13.34 54.57 489 466 __________P___ -1 -13.34 54.57 7 4 259
1897 SI MM 1897-02-18 00:00:00 NR -13.38 54.35 456 434 __________P___ -1 -13.38 54.35 7 4 258
1897 SI MM 03:00:00 NR -13.44 54.12 434 412 __________P___ -1 -13.44 54.12 7 5 255
1897 SI MM 06:00:00 NR -13.50 53.90 412 388 __________O___ -1 -13.50 53.90 7 5 252
1897 SI MM 09:00:00 NR -13.58 53.67 388 364 __________P___ -1 -13.58 53.67 7 5 249
1897 SI MM 12:00:00 NR -13.67 53.44 354 330 __________P___ -1 -13.67 53.44 7 5 246
1897 SI MM 15:00:00 NR -13.78 53.22 330 306 __________P___ -1 -13.78 53.22 7 5 242
1897 SI MM 18:00:00 NR -13.90 53.00 306 281 __________O___ -1 -13.90 53.00 7 5 241
1897 SI MM 21:00:00 NR -14.02 52.78 281 257 __________P___ -1 -14.02 52.78 7 5 239
1897 SI MM 1897-02-19 00:00:00 NR -14.15 52.58 257 227 __________P___ -1 -14.15 52.58 7 5 233
1897 SI MM 03:00:00 NR -14.31 52.38 227 198 __________P___ -1 -14.31 52.38 7 5 226
1897 SI MM 06:00:00 NR -14.50 52.20 198 170 __________O___ -1 -14.50 52.20 7 5 219
1897 SI MM 09:00:00 NR -14.73 52.02 170 152 __________P___ -1 -14.73 52.02 7 6 214
1897 SI MM 12:00:00 NR -14.99 51.86 152 128 __________P___ -1 -14.99 51.86 7 6 208
1897 SI MM 15:00:00 NR -15.28 51.72 128 118 __________P___ -1 -15.28 51.72 7 7 203
1897 SI MM 18:00:00 NR -15.60 51.60 120 116 __________O___ -1 -15.60 51.60 7 7 198
1897 SI MM 21:00:00 NR -15.94 51.50 120 120 __________P___ -1 -15.94 51.50 7 7 194
1897 SI MM 1897-02-20 00:00:00 NR -16.29 51.42 130 130 __________P___ -1 -16.29 51.42 7 7 191
1897 SI MM 03:00:00 NR -16.65 51.36 150 141 __________P___ -1 -16.65 51.36 7 7 189
1897 SI MM 06:00:00 NR -17.00 51.30 161 155 __________O___ -1 -17.00 51.30 7 7 190
1897 SI MM 09:00:00 NR -17.32 51.23 159 159 __________P___ -1 -17.32 51.23 7 6 192
1897 SI MM 12:00:00 NR -17.62 51.17 173 169 __________P___ -1 -17.62 51.17 7 6 190
1897 SI MM 15:00:00 NR -17.92 51.12 170 170 __________P___ -1 -17.92 51.12 7 6 187
1897 SI MM 18:00:00 NR -18.20 51.10 178 178 __________O___ -1 -18.20 51.10 7 5 185
1897 SI MM 21:00:00 NR -18.42 51.08 180 180 __________P___ -1 -18.42 51.08 7 4 0
1897 SI MM 1897-02-21 00:00:00 NR -18.64 51.08 184 184 __________P___ -1 -18.64 51.08 7 5 175
1897 SI MM 03:00:00 NR -18.91 51.11 195 195 __________P___ -1 -18.91 51.11 7 7 170
1897 SI MM 06:00:00 NR -19.30 51.20 220 220 __________O___ -1 -19.30 51.20 7 10 168
1897 SI MM 09:00:00 NR -19.90 51.33 251 251 __________P___ -1 -19.90 51.33 7 13 167
1897 SI MM 12:00:00 NR -20.60 51.52 289 289 __________P___ -1 -20.60 51.52 7 15 165
1897 SI MM 15:00:00 NR -21.33 51.74 334 334 __________P___ -1 -21.33 51.74 7 15 162
1897 SI MM 18:00:00 NR -22.00 52.00 345 337 __________O___ -1 -22.00 52.00 7 13 158
1897 SI MM 21:00:00 NR -22.50 52.26 337 333 __________P___ -1 -22.50 52.26 7 11 152
1897 SI MM 1897-02-22 00:00:00 NR -22.94 52.55 339 333 __________P___ -1 -22.94 52.55 7 10 146
1897 SI MM 03:00:00 NR -23.33 52.86 333 333 __________P___ -1 -23.33 52.86 7 10 142
1897 SI MM 06:00:00 NR -23.70 53.20 344 344 __________O___ -1 -23.70 53.20 7 10 140
1897 SI MM 09:00:00 NR -24.09 53.55 358 358 __________P___ -1 -24.09 53.55 7 10 139
1897 SI MM 12:00:00 NR -24.46 53.93 385 381 __________P___ -1 -24.46 53.93 7 10 137
1897 SI MM 15:00:00 NR -24.83 54.31 402 402 __________P___ -1 -24.83 54.31 7 10 136
1897 SI MM 18:00:00 NR -25.20 54.70 434 434 __________O___ -1 -25.20 54.70 7 10 137
1897 SI MM 21:00:00 NR -25.57 55.07 472 472 __________P___ -1 -25.57 55.07 7 10 138
1897 SI MM 1897-02-23 00:00:00 NR -25.94 55.44 503 503 __________P___ -1 -25.94 55.44 7 10 138
1897 SI MM 03:00:00 NR -26.32 55.82 548 548 __________P___ -1 -26.32 55.82 7 10 138
1897 SI MM 06:00:00 NR -26.70 56.20 595 595 __________O___ -1 -26.70 56.20 7 10 138
1897 SI MM 09:00:00 NR -27.09 56.59 644 644 __________P___ -1 -27.09 56.59 7 10 139
1897 SI MM 12:00:00 NR -27.48 56.98 696 696 __________P___ -1 -27.48 56.98 7 11 139
1897 SI MM 15:00:00 NR -27.89 57.38 748 748 __________P___ -1 -27.89 57.38 7 11 138
1897 SI MM 18:00:00 NR -28.30 57.80 802 802 __________O___ -1 -28.30 57.80 7 11 137
1897 SI MM 21:00:00 NR -28.69 58.22 856 856 __________P___ -1 -28.69 58.22 7 11 137
1897 SI MM 1897-02-24 00:00:00 NR -29.10 58.66 914 914 __________P___ -1 -29.10 58.66 7 11 137
1897 SI MM 03:00:00 NR -29.53 59.12 970 970 __________P___ -1 -29.53 59.12 7 12 138
1897 SI MM 06:00:00 NR -30.00 59.60 1040 1040 __________O___ -1 -30.00 59.60 7 13 138
1897 SI MM 09:00:00 NR -30.50 60.13 1111 1111 __________P___ -1 -30.50 60.13 7 14 138
1897 SI MM 12:00:00 NR -31.04 60.68 1186 1186 __________P___ -1 -31.04 60.68 7 15 140
1897 SI MM 15:00:00 NR -31.64 61.24 1267 1267 __________P___ -1 -31.64 61.24 7 16 143
1897 SI MM 18:00:00 NR -32.30 61.80 1362 1362 __________O___ -1 -32.30 61.80 7 17 147
1897 SI MM 21:00:00 NR -33.03 62.34 1453 1453 __________P___ -1 -33.03 62.34 7 18 150
1897 SI MM 1897-02-25 00:00:00 NR -33.83 62.86 1558 1558 __________P___ -1 -33.83 62.86 7 18 152
1897 SI MM 03:00:00 NR -34.65 63.38 1631 1534 __________P___ -1 -34.65 63.38 7 19 153
1897 SI MM 06:00:00 NR -35.50 63.90 1534 __________O___ -1 -35.50 63.90 7 19 153